Time;durP1;ratioP1;P1;durP2;ratioP2;P2;SDS_P1;SDS_P2;PMS_P1;PMS_P2;Temp;Humidity;BMP_temperature;BMP_pressure;BME280_temperature;BME280_humidity;BME280_pressure;Samples;Min_cycle;Max_cycle;Signal;HPM_P1;HPM_P2
2023/01/18 00:01:47;;;;;;;0.60;0.60;;;;;;;14.75;99.20;98594.59;5080452;28;20245;-74
2023/01/18 00:04:13;;;;;;;0.60;0.60;;;;;;;14.79;99.44;98578.84;5071221;28;20211;-74
2023/01/18 00:06:41;;;;;;;0.50;0.50;;;;;;;14.76;99.67;98580.66;5071252;28;20207;-74
2023/01/18 00:09:08;;;;;;;0.60;0.60;;;;;;;14.71;99.30;98577.31;5071059;28;20214;-75
2023/01/18 00:11:35;;;;;;;0.60;0.60;;;;;;;14.68;99.24;98566.97;5078483;28;20225;-75
2023/01/18 00:14:01;;;;;;;0.60;0.60;;;;;;;14.70;98.98;98566.00;5084304;28;20223;-74
2023/01/18 00:16:30;;;;;;;0.60;0.60;;;;;;;14.81;98.38;98568.34;5074599;28;20273;-76
2023/01/18 00:18:58;;;;;;;0.70;0.70;;;;;;;14.77;98.41;98567.56;5089892;28;20199;-74
2023/01/18 00:21:26;;;;;;;0.60;0.60;;;;;;;14.78;98.49;98555.38;5083393;28;20230;-74
2023/01/18 00:23:54;;;;;;;0.60;0.60;;;;;;;14.88;98.44;98575.13;5073357;28;20294;-76
2023/01/18 00:26:21;;;;;;;0.60;0.60;;;;;;;14.85;99.26;98570.84;5083292;28;20194;-76
2023/01/18 00:28:47;;;;;;;0.60;0.60;;;;;;;14.86;99.71;98580.38;5041662;28;20236;-74
2023/01/18 00:31:16;;;;;;;0.50;0.50;;;;;;;15.03;98.91;98568.63;5088828;28;20264;-75
2023/01/18 00:33:45;;;;;;;0.60;0.60;;;;;;;15.09;98.12;98569.31;5027299;28;20524;-76
2023/01/18 00:36:14;;;;;;;0.50;0.50;;;;;;;15.15;98.18;98574.38;5073610;28;20228;-77
2023/01/18 00:38:41;;;;;;;0.68;0.68;;;;;;;15.07;98.22;98555.47;5073970;28;20290;-74
2023/01/18 00:41:08;;;;;;;0.40;0.40;;;;;;;15.03;100.00;98573.84;5077421;28;20231;-75
2023/01/18 00:43:40;;;;;;;0.50;0.50;;;;;;;14.82;100.00;98549.19;5083679;28;20195;-76
2023/01/18 00:46:07;;;;;;;0.60;0.60;;;;;;;15.04;100.00;98579.03;5074667;28;20191;-75
2023/01/18 00:48:35;;;;;;;0.52;0.52;;;;;;;14.84;100.00;98560.44;5073561;28;20260;-75
2023/01/18 00:51:03;;;;;;;0.50;0.50;;;;;;;14.91;100.00;98555.94;5052002;28;20649;-74
2023/01/18 00:53:30;;;;;;;0.70;0.70;;;;;;;15.05;100.00;98572.94;5044747;28;20214;-74
2023/01/18 00:55:57;;;;;;;0.60;0.60;;;;;;;14.81;100.00;98543.09;5073230;28;20206;-75
2023/01/18 00:58:24;;;;;;;0.60;0.60;;;;;;;15.04;100.00;98560.78;5073396;28;20214;-75
2023/01/18 01:00:52;;;;;;;2.28;2.08;;;;;;;15.01;100.00;98568.69;5088186;28;20230;-75
2023/01/18 01:03:18;;;;;;;0.60;0.60;;;;;;;15.03;100.00;98566.00;5084454;28;20231;-75
2023/01/18 01:08:30;;;;;;;0.50;0.50;;;;;;;15.07;100.00;98570.25;5074229;28;20201;-76
2023/01/18 01:11:06;;;;;;;0.60;0.60;;;;;;;15.03;100.00;98542.53;5088432;28;20291;-75
2023/01/18 01:27:16;;;;;;;0.43;0.43;;;;;;;14.95;100.00;98542.72;5085549;28;20206;-76
2023/01/18 01:29:43;;;;;;;0.70;0.70;;;;;;;15.08;100.00;98551.97;5079257;28;20581;-75
2023/01/18 01:32:09;;;;;;;0.40;0.40;;;;;;;15.13;100.00;98555.28;5074190;28;20648;-76
2023/01/18 01:34:36;;;;;;;0.50;0.50;;;;;;;15.12;100.00;98553.59;5092106;28;20632;-75
2023/01/18 01:37:03;;;;;;;0.50;0.50;;;;;;;15.13;100.00;98551.81;5092623;28;20262;-75
2023/01/18 01:39:31;;;;;;;0.60;0.60;;;;;;;15.26;100.00;98555.81;5077239;28;20206;-75
2023/01/18 01:41:58;;;;;;;0.50;0.50;;;;;;;15.07;100.00;98538.94;5092409;28;20233;-75
2023/01/18 01:44:52;;;;;;;0.50;0.50;;;;;;;15.28;100.00;98554.00;5055043;28;20297;-75
2023/01/18 01:47:32;;;;;;;0.80;0.80;;;;;;;15.23;100.00;98550.69;4959564;28;20201;-76
2023/01/18 01:50:03;;;;;;;0.60;0.60;;;;;;;15.27;100.00;98555.75;4998418;28;20314;-76
2023/01/18 01:52:35;;;;;;;0.60;0.60;;;;;;;15.19;100.00;98559.50;5009692;28;20212;-75
2023/01/18 01:55:09;;;;;;;0.50;0.50;;;;;;;15.15;100.00;98542.19;5004485;28;20201;-75
2023/01/18 01:57:39;;;;;;;0.60;0.60;;;;;;;15.13;100.00;98544.84;5009966;28;20204;-75
2023/01/18 02:00:09;;;;;;;0.98;0.98;;;;;;;15.21;100.00;98539.41;5002706;28;20340;-74
2023/01/18 02:02:38;;;;;;;0.60;0.60;;;;;;;15.22;100.00;98560.25;4990677;28;20304;-76
2023/01/18 02:05:09;;;;;;;0.50;0.50;;;;;;;15.23;100.00;98561.94;4993462;28;20625;-76
2023/01/18 02:07:36;;;;;;;0.60;0.60;;;;;;;15.15;100.00;98566.56;5008596;28;20204;-75
2023/01/18 02:10:06;;;;;;;0.52;0.52;;;;;;;15.07;100.00;98534.56;5001181;28;20596;-75
2023/01/18 02:12:35;;;;;;;0.60;0.60;;;;;;;15.18;100.00;98574.28;4957854;28;20209;-76
2023/01/18 02:15:03;;;;;;;0.60;0.60;;;;;;;15.12;100.00;98560.56;5001075;28;20205;-75
2023/01/18 02:17:47;;;;;;;0.60;0.60;;;;;;;15.17;100.00;98556.91;4998716;28;20220;-76
2023/01/18 02:20:51;;;;;;;0.60;0.60;;;;;;;15.15;100.00;98557.88;5010108;28;20624;-75
2023/01/18 02:24:12;;;;;;;0.63;0.63;;;;;;;15.11;100.00;98548.41;5038294;28;20202;-75
2023/01/18 02:26:59;;;;;;;0.50;0.50;;;;;;;15.13;100.00;98554.41;5077977;28;20202;-76
2023/01/18 02:29:47;;;;;;;0.60;0.60;;;;;;;15.12;100.00;98550.13;4984306;28;20269;-75
2023/01/18 02:32:22;;;;;;;0.60;0.60;;;;;;;15.14;100.00;98540.47;4912793;29;20672;-76
2023/01/18 02:34:51;;;;;;;0.50;0.50;;;;;;;15.15;100.00;98548.28;4912977;29;20204;-75
2023/01/18 02:37:30;;;;;;;0.60;0.60;;;;;;;15.09;100.00;98538.00;4912965;29;20212;-74
2023/01/18 02:40:11;;;;;;;0.70;0.70;;;;;;;15.11;100.00;98551.88;4912532;29;20225;-74
2023/01/18 02:48:19;;;;;;;0.50;0.50;;;;;;;15.03;100.00;98548.59;4895333;29;20232;-75
2023/01/18 02:50:46;;;;;;;0.60;0.60;;;;;;;14.92;100.00;98535.00;4912171;29;20212;-75
2023/01/18 02:53:14;;;;;;;0.50;0.50;;;;;;;14.95;100.00;98549.72;4912503;29;20218;-75
2023/01/18 02:55:46;;;;;;;0.60;0.60;;;;;;;14.93;100.00;98541.94;4881679;29;20449;-75
2023/01/18 02:58:20;;;;;;;0.32;0.32;;;;;;;14.80;100.00;98515.28;4912346;29;20208;-75
2023/01/18 03:00:52;;;;;;;0.50;0.50;;;;;;;14.92;100.00;98542.81;4911768;29;20696;-75
2023/01/18 03:03:21;;;;;;;2.50;1.65;;;;;;;14.94;100.00;98541.03;4912516;29;20295;-75
2023/01/18 03:05:49;;;;;;;0.50;0.50;;;;;;;14.63;100.00;98477.53;4926666;28;20240;-75
2023/01/18 03:08:21;;;;;;;0.50;0.50;;;;;;;14.93;100.00;98547.16;5008909;28;20205;-75
2023/01/18 03:10:57;;;;;;;0.93;0.93;;;;;;;14.89;100.00;98538.56;5083955;28;20241;-74
2023/01/18 03:13:30;;;;;;;1.08;1.08;;;;;;;14.86;100.00;98553.44;5090335;28;20206;-76
2023/01/18 03:16:06;;;;;;;0.60;0.60;;;;;;;14.82;100.00;98541.38;5090658;28;20205;-75
2023/01/18 03:19:00;;;;;;;0.60;0.60;;;;;;;14.77;100.00;98556.28;5081678;28;20211;-75
2023/01/18 03:21:36;;;;;;;1.38;1.38;;;;;;;14.73;100.00;98552.06;5054351;28;20309;-75
2023/01/18 03:24:05;;;;;;;0.57;0.57;;;;;;;14.69;100.00;98546.06;5070993;28;20201;-75
2023/01/18 03:26:36;;;;;;;0.60;0.60;;;;;;;14.68;100.00;98541.72;5071821;28;20202;-75
2023/01/18 03:34:46;;;;;;;1.17;1.17;;;;;;;14.66;100.00;98553.94;5081152;28;20236;-75
2023/01/18 03:37:17;;;;;;;0.55;0.55;;;;;;;14.54;100.00;98553.41;5077355;28;20646;-75
2023/01/18 03:39:46;;;;;;;0.60;0.60;;;;;;;14.39;100.00;98533.78;5090845;28;20611;-75
2023/01/18 03:42:17;;;;;;;0.50;0.50;;;;;;;14.50;100.00;98547.41;5082443;28;20230;-75
2023/01/18 03:44:50;;;;;;;0.60;0.60;;;;;;;14.55;100.00;98552.53;5070757;28;20202;-76
2023/01/18 03:47:19;;;;;;;0.70;0.70;;;;;;;14.41;100.00;98532.03;5079148;28;20622;-75
2023/01/18 03:49:46;;;;;;;0.60;0.60;;;;;;;14.57;100.00;98567.22;5083086;28;20195;-76
2023/01/18 03:52:18;;;;;;;0.50;0.50;;;;;;;14.64;100.00;98544.44;5088776;28;20334;-76
2023/01/18 03:54:56;;;;;;;1.40;1.30;;;;;;;14.58;100.00;98549.84;5070319;28;20202;-76
2023/01/18 03:57:28;;;;;;;0.60;0.60;;;;;;;14.63;100.00;98540.13;5071633;28;20217;-76
2023/01/18 03:59:56;;;;;;;0.60;0.60;;;;;;;14.45;100.00;98517.16;5081692;28;20270;-75
2023/01/18 04:02:27;;;;;;;0.50;0.50;;;;;;;14.69;100.00;98537.38;5079914;28;20315;-75
2023/01/18 04:04:56;;;;;;;0.50;0.50;;;;;;;14.60;100.00;98537.59;5054845;28;20202;-75
2023/01/18 04:07:25;;;;;;;0.57;0.57;;;;;;;14.59;100.00;98531.53;5082456;28;20190;-75
2023/01/18 04:09:52;;;;;;;0.50;0.50;;;;;;;14.32;100.00;98514.81;5082561;28;20290;-76
2023/01/18 04:12:19;;;;;;;0.50;0.50;;;;;;;14.40;100.00;98522.47;5083619;28;20199;-76
2023/01/18 04:14:46;;;;;;;0.80;0.80;;;;;;;14.49;100.00;98540.47;5083571;28;20710;-73
2023/01/18 04:17:12;;;;;;;0.60;0.60;;;;;;;14.34;100.00;98531.28;5082602;28;20254;-75
2023/01/18 04:19:40;;;;;;;0.60;0.60;;;;;;;14.39;100.00;98539.88;5093440;28;20661;-78
2023/01/18 04:22:07;;;;;;;0.60;0.60;;;;;;;14.36;100.00;98558.19;5077339;28;20268;-75
2023/01/18 04:24:34;;;;;;;0.85;0.85;;;;;;;14.36;100.00;98560.81;5086624;28;20656;-73
2023/01/18 04:27:01;;;;;;;0.52;0.52;;;;;;;14.22;100.00;98534.19;5088328;28;20228;-73
2023/01/18 04:29:28;;;;;;;0.40;0.40;;;;;;;14.38;100.00;98559.00;5073870;28;20206;-74
2023/01/18 04:31:55;;;;;;;0.82;0.82;;;;;;;14.26;100.00;98535.81;5090992;28;20958;-73
2023/01/18 04:34:22;;;;;;;0.70;0.70;;;;;;;14.51;100.00;98566.53;5092115;28;20198;-73
2023/01/18 04:36:51;;;;;;;0.50;0.50;;;;;;;14.59;100.00;98567.22;5077437;28;20506;-74
2023/01/18 04:39:18;;;;;;;0.70;0.70;;;;;;;14.56;100.00;98559.44;5079736;28;20217;-74
2023/01/18 04:41:45;;;;;;;0.50;0.50;;;;;;;14.54;100.00;98566.47;5080280;28;20226;-74
2023/01/18 04:44:12;;;;;;;0.50;0.50;;;;;;;14.44;100.00;98564.97;5079268;28;20197;-74
2023/01/18 04:46:39;;;;;;;0.50;0.50;;;;;;;14.27;100.00;98549.69;5076315;28;20289;-74
2023/01/18 04:49:10;;;;;;;0.60;0.60;;;;;;;14.41;100.00;98573.75;5082787;28;20202;-75
2023/01/18 04:51:38;;;;;;;0.50;0.50;;;;;;;14.38;100.00;98579.00;5089527;28;20218;-76
2023/01/18 04:54:06;;;;;;;0.60;0.60;;;;;;;14.29;100.00;98580.06;5072772;28;20212;-75
2023/01/18 04:56:33;;;;;;;0.60;0.60;;;;;;;14.26;100.00;98574.94;5088379;28;20202;-76
2023/01/18 04:59:00;;;;;;;0.60;0.60;;;;;;;14.19;100.00;98581.19;5091146;28;20206;-76
2023/01/18 05:01:28;;;;;;;0.60;0.60;;;;;;;14.16;100.00;98573.41;5092835;28;20283;-75
2023/01/18 05:03:55;;;;;;;0.57;0.57;;;;;;;14.14;100.00;98564.78;5083321;28;20204;-75
2023/01/18 05:06:23;;;;;;;0.60;0.60;;;;;;;14.08;100.00;98558.88;5078567;28;20267;-75
2023/01/18 05:08:50;;;;;;;0.70;0.70;;;;;;;14.12;100.00;98582.22;5072143;28;20213;-75
2023/01/18 05:11:21;;;;;;;0.65;0.65;;;;;;;14.13;100.00;98593.47;5073437;28;20226;-75
2023/01/18 05:13:48;;;;;;;0.60;0.60;;;;;;;14.06;100.00;98561.50;5057354;28;20562;-74
2023/01/18 05:16:17;;;;;;;0.65;0.65;;;;;;;14.22;100.00;98591.53;5079610;28;20206;-75
2023/01/18 05:18:46;;;;;;;0.70;0.70;;;;;;;14.26;100.00;98595.78;5021488;28;20666;-74
2023/01/18 05:21:13;;;;;;;0.70;0.70;;;;;;;14.28;100.00;98588.78;5072635;28;20662;-74
2023/01/18 05:23:40;;;;;;;0.60;0.60;;;;;;;14.21;100.00;98571.56;5072487;28;20187;-74
2023/01/18 05:26:13;;;;;;;0.70;0.70;;;;;;;14.29;100.00;98600.94;5079395;28;20203;-75
2023/01/18 05:28:42;;;;;;;0.65;0.65;;;;;;;14.15;100.00;98581.28;5050101;28;20195;-74
2023/01/18 05:31:09;;;;;;;0.70;0.70;;;;;;;14.25;100.00;98607.09;5077613;28;20649;-74
2023/01/18 05:33:35;;;;;;;0.50;0.50;;;;;;;14.21;100.00;98618.50;5079538;28;20210;-74
2023/01/18 05:36:02;;;;;;;0.57;0.57;;;;;;;14.10;100.00;98583.13;5077963;28;20670;-74
2023/01/18 05:38:29;;;;;;;0.60;0.60;;;;;;;14.17;100.00;98589.91;5072605;28;20214;-75
2023/01/18 05:40:56;;;;;;;0.60;0.60;;;;;;;14.13;100.00;98615.19;5072613;28;20194;-76
2023/01/18 05:43:26;;;;;;;1.08;1.08;;;;;;;14.06;100.00;98597.97;5085033;28;20229;-73
2023/01/18 05:45:54;;;;;;;0.50;0.50;;;;;;;14.16;100.00;98609.91;5090960;28;20711;-74
2023/01/18 05:48:21;;;;;;;0.60;0.60;;;;;;;14.24;100.00;98623.63;5074218;28;20276;-74
2023/01/18 05:50:49;;;;;;;0.60;0.60;;;;;;;14.15;100.00;98597.78;5074575;28;20199;-74
2023/01/18 05:53:18;;;;;;;0.60;0.60;;;;;;;14.35;100.00;98610.38;5090583;28;20279;-73
2023/01/18 05:55:54;;;;;;;0.60;0.60;;;;;;;14.23;100.00;98595.84;5039678;28;20259;-74
2023/01/18 05:58:20;;;;;;;0.60;0.60;;;;;;;14.30;100.00;98607.84;5092207;28;20198;-73
2023/01/18 06:00:47;;;;;;;0.60;0.60;;;;;;;14.29;100.00;98615.69;5087435;28;20256;-73
2023/01/18 06:03:15;;;;;;;0.60;0.60;;;;;;;14.26;100.00;98629.69;5072690;28;20234;-72
2023/01/18 06:05:42;;;;;;;0.60;0.60;;;;;;;14.26;100.00;98632.28;5083696;28;20199;-75
2023/01/18 06:08:09;;;;;;;0.50;0.50;;;;;;;14.22;100.00;98630.63;5086977;28;20260;-74
2023/01/18 06:10:35;;;;;;;0.70;0.70;;;;;;;14.16;100.00;98641.19;5085878;28;20226;-75
2023/01/18 06:13:02;;;;;;;0.70;0.70;;;;;;;14.20;100.00;98637.63;5090611;28;20205;-74
2023/01/18 06:15:29;;;;;;;0.52;0.52;;;;;;;14.12;100.00;98618.72;5091310;28;20221;-76
2023/01/18 06:17:56;;;;;;;0.52;0.52;;;;;;;14.34;100.00;98650.38;5074632;28;20642;-77
2023/01/18 06:20:29;;;;;;;0.60;0.60;;;;;;;14.38;100.00;98638.97;5071423;28;20209;-79
2023/01/18 06:22:56;;;;;;;0.55;0.55;;;;;;;14.48;100.00;98658.75;5087496;28;20605;-76
2023/01/18 06:25:23;;;;;;;0.60;0.60;;;;;;;14.55;100.00;98670.75;5091804;28;20217;-77
2023/01/18 06:27:49;;;;;;;0.68;0.68;;;;;;;14.60;100.00;98668.88;5078441;28;20654;-77
2023/01/18 06:30:17;;;;;;;0.70;0.70;;;;;;;14.68;100.00;98673.91;5071500;28;20199;-75
2023/01/18 06:32:44;;;;;;;1.70;1.60;;;;;;;14.75;100.00;98678.09;5084096;28;20202;-75
2023/01/18 06:35:11;;;;;;;0.60;0.60;;;;;;;14.58;98.80;98625.47;5080586;28;20634;-76
2023/01/18 06:37:39;;;;;;;0.70;0.70;;;;;;;14.84;98.60;98663.06;5084468;28;20205;-77
2023/01/18 06:40:08;;;;;;;0.60;0.60;;;;;;;14.87;99.34;98665.59;5075406;28;20202;-76
2023/01/18 06:42:35;;;;;;;1.02;1.02;;;;;;;14.94;98.51;98661.09;5036988;28;20359;-76
2023/01/18 06:45:01;;;;;;;0.57;0.57;;;;;;;14.97;98.46;98666.22;5031802;28;20284;-75
2023/01/18 06:47:28;;;;;;;0.60;0.60;;;;;;;15.00;98.22;98670.50;5091452;28;20590;-72
2023/01/18 06:49:55;;;;;;;0.95;0.95;;;;;;;15.04;98.73;98680.84;5077577;28;20585;-73
2023/01/18 06:52:22;;;;;;;0.60;0.60;;;;;;;14.85;97.61;98643.91;5075999;28;20304;-73
2023/01/18 06:54:51;;;;;;;0.50;0.50;;;;;;;15.15;97.96;98676.22;5091334;28;20201;-76
2023/01/18 06:57:17;;;;;;;0.60;0.60;;;;;;;15.13;97.35;98683.19;5072953;28;20202;-77
2023/01/18 06:59:44;;;;;;;0.70;0.70;;;;;;;15.12;97.74;98684.13;5081111;28;20201;-74
2023/01/18 07:02:15;;;;;;;0.60;0.60;;;;;;;15.19;95.87;98653.47;5091273;28;20226;-76
2023/01/18 07:04:44;;;;;;;0.50;0.50;;;;;;;15.27;96.21;98688.91;5091096;28;20602;-75
2023/01/18 07:07:11;;;;;;;0.50;0.50;;;;;;;15.27;96.65;98694.13;5075215;28;20230;-77
2023/01/18 07:09:37;;;;;;;0.90;0.90;;;;;;;15.15;96.41;98668.38;5070828;28;20217;-75
2023/01/18 07:12:06;;;;;;;0.50;0.50;;;;;;;15.45;95.91;98698.03;5070269;28;20245;-75
2023/01/18 07:14:33;;;;;;;0.60;0.60;;;;;;;15.49;95.02;98689.25;5070579;28;20709;-76
2023/01/18 07:17:00;;;;;;;0.50;0.50;;;;;;;15.62;94.42;98687.16;5082814;28;20205;-76
2023/01/18 07:19:26;;;;;;;0.50;0.50;;;;;;;15.57;94.58;98686.44;5087511;28;20199;-76
2023/01/18 07:21:53;;;;;;;0.50;0.50;;;;;;;15.72;94.50;98699.06;5080458;28;20198;-78
2023/01/18 07:24:21;;;;;;;0.60;0.60;;;;;;;15.77;93.80;98669.28;5025298;28;20248;-81
2023/01/18 07:26:48;;;;;;;0.60;0.60;;;;;;;15.84;94.38;98696.97;5083026;28;20199;-78
2023/01/18 07:29:16;;;;;;;0.60;0.60;;;;;;;15.85;94.09;98676.91;5018861;28;20195;-79
2023/01/18 07:31:43;;;;;;;0.90;0.90;;;;;;;15.98;92.62;98699.16;5076184;28;20259;-75
2023/01/18 07:34:10;;;;;;;0.40;0.40;;;;;;;16.11;91.95;98703.16;5078133;28;20195;-75
2023/01/18 07:36:38;;;;;;;0.50;0.50;;;;;;;16.22;91.62;98703.69;5070344;28;20205;-75
2023/01/18 07:39:05;;;;;;;1.05;1.05;;;;;;;16.08;91.38;98682.34;5081486;28;20209;-75
2023/01/18 07:41:32;;;;;;;0.60;0.60;;;;;;;16.40;90.80;98696.19;5073086;28;20191;-75
2023/01/18 07:43:59;;;;;;;0.70;0.70;;;;;;;16.28;90.58;98698.28;5070090;28;20222;-74
2023/01/18 07:46:27;;;;;;;0.50;0.50;;;;;;;16.53;89.75;98716.69;5084222;28;20206;-75
2023/01/18 07:48:55;;;;;;;0.50;0.50;;;;;;;16.56;88.57;98693.09;5070458;28;20190;-74
2023/01/18 07:51:22;;;;;;;2.10;1.95;;;;;;;16.60;87.91;98706.94;5084417;28;20206;-71
2023/01/18 07:53:53;;;;;;;0.60;0.60;;;;;;;16.55;87.99;98680.03;5070179;28;20205;-75
2023/01/18 07:56:21;;;;;;;0.60;0.60;;;;;;;16.74;86.69;98715.19;5070213;28;20201;-74
2023/01/18 07:58:48;;;;;;;0.45;0.45;;;;;;;16.84;87.28;98721.84;5075335;28;20202;-73
2023/01/18 08:01:17;;;;;;;0.60;0.60;;;;;;;16.68;87.06;98691.84;5038465;28;20229;-74
2023/01/18 08:03:47;;;;;;;0.55;0.55;;;;;;;16.79;87.71;98727.25;5034472;28;20219;-75
2023/01/18 08:06:15;;;;;;;0.50;0.50;;;;;;;16.70;87.80;98731.91;5070108;28;20227;-74
2023/01/18 08:08:43;;;;;;;0.50;0.50;;;;;;;16.80;87.82;98730.72;5084386;28;20211;-75
2023/01/18 08:11:11;;;;;;;0.60;0.60;;;;;;;16.79;86.61;98723.78;5070301;28;20324;-75
2023/01/18 08:13:38;;;;;;;0.50;0.50;;;;;;;16.83;86.92;98722.78;5085507;28;20233;-74
2023/01/18 08:16:07;;;;;;;0.50;0.50;;;;;;;16.99;87.38;98723.13;5086683;28;20598;-74
2023/01/18 08:18:34;;;;;;;0.60;0.60;;;;;;;16.90;87.33;98716.44;5080461;28;20199;-75
2023/01/18 08:21:03;;;;;;;0.60;0.60;;;;;;;17.04;85.63;98716.84;5073712;28;20724;-75
2023/01/18 08:23:30;;;;;;;0.60;0.60;;;;;;;17.02;84.57;98708.16;5078762;28;20230;-76
2023/01/18 08:26:01;;;;;;;0.60;0.60;;;;;;;17.29;83.55;98733.47;5089434;28;20741;-76
2023/01/18 08:28:27;;;;;;;0.52;0.52;;;;;;;17.31;83.70;98728.16;5078078;28;20202;-75
2023/01/18 08:31:06;;;;;;;0.80;0.80;;;;;;;17.41;82.71;98720.84;5090277;28;20225;-75
2023/01/18 08:33:37;;;;;;;0.60;0.60;;;;;;;17.41;82.89;98731.34;5070072;28;20298;-75
2023/01/18 08:36:09;;;;;;;0.70;0.70;;;;;;;17.54;80.92;98720.38;5084003;28;20198;-75
2023/01/18 08:38:36;;;;;;;0.50;0.50;;;;;;;17.47;82.32;98731.13;5018666;28;20278;-75
2023/01/18 08:41:03;;;;;;;0.60;0.60;;;;;;;17.66;81.60;98742.69;5069712;28;20268;-75
2023/01/18 08:43:29;;;;;;;0.60;0.60;;;;;;;17.84;79.95;98726.31;5085209;28;20226;-76
2023/01/18 08:45:56;;;;;;;0.57;0.57;;;;;;;18.01;79.99;98733.59;5085452;28;20225;-76
2023/01/18 08:48:23;;;;;;;0.60;0.60;;;;;;;18.10;78.22;98731.47;5090006;28;20695;-76
2023/01/18 08:50:50;;;;;;;0.50;0.50;;;;;;;18.15;77.61;98744.44;5073437;28;20252;-76
2023/01/18 08:53:18;;;;;;;0.70;0.70;;;;;;;18.21;76.17;98726.69;5074982;28;20203;-76
2023/01/18 08:55:44;;;;;;;0.55;0.55;;;;;;;18.19;76.59;98736.34;5085673;28;20202;-76
2023/01/18 08:58:11;;;;;;;1.63;1.52;;;;;;;18.38;76.18;98743.53;5087880;28;20242;-76
2023/01/18 09:00:38;;;;;;;0.60;0.60;;;;;;;18.30;77.09;98739.44;5093506;28;20297;-76
2023/01/18 09:03:05;;;;;;;0.60;0.60;;;;;;;18.35;77.41;98739.28;5093356;28;20732;-75
2023/01/18 09:05:34;;;;;;;0.60;0.60;;;;;;;18.51;74.79;98722.09;5093462;28;20209;-74
2023/01/18 09:08:01;;;;;;;0.60;0.60;;;;;;;18.55;73.29;98730.69;5093978;28;20289;-77
2023/01/18 09:10:29;;;;;;;0.50;0.50;;;;;;;18.77;72.79;98760.41;5093821;28;20241;-76
2023/01/18 09:12:55;;;;;;;0.60;0.60;;;;;;;18.77;72.26;98734.16;5093593;28;20209;-76
2023/01/18 09:15:22;;;;;;;0.50;0.50;;;;;;;18.91;71.19;98718.72;5093669;28;20639;-76
2023/01/18 09:17:49;;;;;;;0.43;0.43;;;;;;;19.17;69.12;98736.91;5093434;28;20256;-76
2023/01/18 09:20:16;;;;;;;0.65;0.65;;;;;;;19.22;69.31;98713.94;5093453;28;20255;-75
2023/01/18 09:22:44;;;;;;;0.60;0.60;;;;;;;19.07;68.36;98719.81;5093285;28;20201;-75
2023/01/18 09:25:10;;;;;;;0.40;0.40;;;;;;;19.14;68.44;98742.28;5093541;28;20672;-78
2023/01/18 09:27:39;;;;;;;0.60;0.60;;;;;;;19.25;68.27;98750.59;5093055;28;20259;-76
2023/01/18 09:30:08;;;;;;;0.47;0.47;;;;;;;19.15;67.56;98743.13;5093097;28;20202;-76
2023/01/18 09:32:35;;;;;;;0.60;0.60;;;;;;;19.22;68.01;98757.75;5041029;28;20279;-76
2023/01/18 09:35:01;;;;;;;0.60;0.60;;;;;;;19.33;67.75;98742.38;5093012;28;20194;-75
2023/01/18 09:37:28;;;;;;;0.60;0.60;;;;;;;19.43;67.22;98748.13;5041131;28;20226;-76
2023/01/18 09:39:55;;;;;;;0.60;0.60;;;;;;;19.31;66.26;98749.47;5092590;28;20558;-76
2023/01/18 09:42:24;;;;;;;0.60;0.60;;;;;;;19.20;64.66;98721.00;5090957;28;20624;-76
2023/01/18 09:44:55;;;;;;;0.60;0.60;;;;;;;19.54;64.33;98748.53;5072055;28;20222;-77
2023/01/18 09:47:25;;;;;;;0.60;0.60;;;;;;;19.50;65.63;98757.47;5025087;28;20699;-76
2023/01/18 09:49:55;;;;;;;0.47;0.47;;;;;;;19.46;65.73;98754.13;5072994;28;20650;-77
2023/01/18 09:52:37;;;;;;;0.60;0.60;;;;;;;19.51;64.98;98753.94;5078038;28;20700;-77
2023/01/18 09:55:14;;;;;;;0.60;0.60;;;;;;;19.24;66.34;98727.84;5082993;28;20260;-76
2023/01/18 09:57:54;;;;;;;0.60;0.60;;;;;;;19.25;67.53;98732.19;5073899;28;20678;-77
2023/01/18 10:00:24;;;;;;;0.60;0.60;;;;;;;19.13;66.98;98750.22;5034049;28;20627;-77
2023/01/18 10:02:59;;;;;;;0.52;0.52;;;;;;;19.20;66.56;98751.66;5049661;28;20198;-77
2023/01/18 10:05:31;;;;;;;1.45;1.35;;;;;;;19.01;67.14;98741.09;5072089;28;20198;-76
2023/01/18 10:08:02;;;;;;;0.70;0.70;;;;;;;18.95;67.51;98743.94;5088098;28;20198;-77
2023/01/18 10:10:33;;;;;;;0.50;0.50;;;;;;;18.88;67.21;98724.09;5082774;28;20576;-76
2023/01/18 10:13:27;;;;;;;0.52;0.52;;;;;;;18.90;67.33;98732.78;5071623;28;20215;-76
2023/01/18 10:15:55;;;;;;;0.70;0.70;;;;;;;18.88;66.97;98729.34;4990405;28;20237;-76
2023/01/18 10:18:23;;;;;;;0.50;0.50;;;;;;;18.78;66.93;98735.88;4993928;28;20582;-75
2023/01/18 10:20:56;;;;;;;0.60;0.60;;;;;;;18.91;65.77;98723.09;5009869;28;20197;-76
2023/01/18 10:23:27;;;;;;;1.85;0.95;;;;;;;18.95;66.04;98735.19;4964352;28;20267;-75
2023/01/18 10:25:56;;;;;;;0.60;0.60;;;;;;;19.10;65.16;98735.44;5000279;28;20618;-77
2023/01/18 10:28:33;;;;;;;0.57;0.57;;;;;;;19.02;65.00;98720.91;4991829;28;20209;-75
2023/01/18 10:31:29;;;;;;;0.43;0.43;;;;;;;19.36;64.21;98746.66;5000217;28;20233;-75
2023/01/18 10:34:01;;;;;;;0.60;0.60;;;;;;;19.47;62.95;98744.47;5003627;28;20307;-78
2023/01/18 10:36:33;;;;;;;0.57;0.57;;;;;;;19.63;60.82;98749.00;4989770;28;20739;-76
2023/01/18 10:39:04;;;;;;;0.50;0.50;;;;;;;19.83;59.67;98745.50;4995068;28;20726;-77
2023/01/18 10:41:35;;;;;;;0.50;0.50;;;;;;;19.87;59.76;98756.75;5009536;28;20200;-76
2023/01/18 10:44:02;;;;;;;0.60;0.60;;;;;;;19.90;59.91;98751.34;4995643;28;20228;-76
2023/01/18 10:46:30;;;;;;;0.50;0.50;;;;;;;20.02;58.96;98742.91;5009418;28;20220;-76
2023/01/18 10:48:58;;;;;;;0.63;0.63;;;;;;;20.07;57.92;98738.31;5009016;28;20204;-76
2023/01/18 10:51:29;;;;;;;0.57;0.57;;;;;;;20.17;57.02;98743.09;4976865;28;20205;-75
2023/01/18 10:53:56;;;;;;;0.60;0.60;;;;;;;20.01;56.15;98721.00;5065516;28;20207;-76
2023/01/18 10:56:25;;;;;;;0.60;0.60;;;;;;;20.03;56.20;98740.22;5071071;28;20199;-75
2023/01/18 10:58:57;;;;;;;0.60;0.60;;;;;;;19.99;57.44;98748.31;5070980;28;20202;-74
2023/01/18 11:01:26;;;;;;;0.60;0.60;;;;;;;19.80;57.45;98750.88;5070928;28;20658;-84
2023/01/18 11:03:58;;;;;;;0.50;0.50;;;;;;;19.68;57.67;98740.91;5070658;28;20305;-75
2023/01/18 11:06:25;;;;;;;0.60;0.60;;;;;;;19.75;58.31;98755.50;5070151;28;20665;-76
2023/01/18 11:08:54;;;;;;;0.60;0.60;;;;;;;19.56;58.24;98726.50;5082864;28;20209;-73
2023/01/18 11:14:24;;;;;;;0.50;0.50;;;;;;;19.92;57.91;98754.75;5083763;28;20212;-75
2023/01/18 11:16:57;;;;;;;0.52;0.52;;;;;;;19.91;58.59;98753.91;5078457;28;20202;-75
2023/01/18 11:19:25;;;;;;;0.60;0.60;;;;;;;19.97;57.87;98769.44;5089925;28;20202;-74
2023/01/18 11:21:53;;;;;;;0.60;0.60;;;;;;;19.99;56.59;98762.31;5077867;28;20658;-75
2023/01/18 11:24:24;;;;;;;0.60;0.60;;;;;;;20.17;56.61;98774.66;5077030;28;20227;-75
2023/01/18 11:26:58;;;;;;;0.50;0.50;;;;;;;20.18;55.97;98765.00;5070583;28;20202;-76
2023/01/18 11:29:30;;;;;;;0.50;0.50;;;;;;;20.25;56.08;98769.06;5083933;28;20633;-75
2023/01/18 11:32:02;;;;;;;1.42;1.25;;;;;;;20.18;55.42;98760.59;5076926;28;20213;-75
2023/01/18 11:34:33;;;;;;;0.60;0.60;;;;;;;19.78;55.00;98697.50;5090369;28;20206;-74
2023/01/18 11:37:01;;;;;;;0.60;0.60;;;;;;;20.34;55.16;98778.34;5090730;28;20202;-75
2023/01/18 11:39:30;;;;;;;0.60;0.60;;;;;;;20.15;55.30;98758.09;5090398;28;20669;-75
2023/01/18 11:42:21;;;;;;;0.55;0.55;;;;;;;20.25;55.64;98767.28;5090648;28;20205;-75
2023/01/18 11:45:00;;;;;;;0.55;0.55;;;;;;;20.36;55.34;98764.19;5090343;28;20659;-75
2023/01/18 11:47:34;;;;;;;0.60;0.60;;;;;;;20.38;56.12;98750.94;5090585;28;20205;-75
2023/01/18 11:50:06;;;;;;;0.60;0.60;;;;;;;20.56;55.61;98771.16;5090462;28;20198;-75
2023/01/18 11:52:45;;;;;;;0.52;0.52;;;;;;;20.61;55.82;98785.00;5090493;28;20625;-75
2023/01/18 11:55:30;;;;;;;0.57;0.57;;;;;;;20.67;55.32;98768.88;5090503;28;20627;-75
2023/01/18 11:57:57;;;;;;;0.50;0.50;;;;;;;20.75;54.66;98786.06;5090695;28;20229;-76
2023/01/18 12:00:27;;;;;;;0.50;0.50;;;;;;;20.71;55.11;98799.44;5090502;28;20241;-78
2023/01/18 12:03:15;;;;;;;0.50;0.50;;;;;;;20.75;55.03;98787.84;5090732;28;20301;-76
2023/01/18 12:05:49;;;;;;;0.60;0.60;;;;;;;20.55;53.71;98774.72;5090441;28;20205;-75
2023/01/18 12:08:37;;;;;;;0.60;0.60;;;;;;;20.66;53.85;98789.09;5090593;28;20233;-77
2023/01/18 12:11:17;;;;;;;0.57;0.57;;;;;;;20.63;54.08;98781.34;5090506;28;20256;-77
2023/01/18 12:13:58;;;;;;;0.70;0.70;;;;;;;20.63;53.22;98793.66;5090560;28;20194;-76